GUF weather

Jack Edwards Airport
Gulf Shores, Alabama, United States

Public forecast

Using degrees Fahrenheit for public forecast. Weather courtesy of forecast.io.

METAR (pilot weather report)

Retrieved 2019/07/20 02:35 UTC (0 seconds ago):

KJKA 200235Z AUTO 07003KT 10SM SCT100 24/23 A3007 RMK AO2 LTG DSNT E THRU SW T02350228

TAF (pilot weather forecast)

Forecast is more than 12 hours old.

Closest forecast is Pensacola Naval Air Station/Forrest Sherman Field, 18.7 nm (34.6 km) ENE. Retrieved 2014/03/28 15:06 UTC (5 years ago):

TAF TAF COR KNPA 281500Z 2815/2915 10012G18KT 6000 RA BR VCTS SCT005 BKN015CB OVC040 QNH2994INS TEMPO 2815/1817 VRB30G45KT 1200 TSRAGS BR BKN005 OVC010CB FM281700 15014G22KT 9000 BR VCSH SCT008 BKN025 OVC060 QNH2978INS TEMPO 2817/2900 VRB20G30KT 3200 SHRA BR VCTS BKN008 OVC025CB FM290006 17012G18KT 8000 BR VCSH BKN008 BKN025 OVC060 QNH2980INS TEMPO 2900/2906 3200 RA BR BKN004 OVC008 FM290600 21008G14KT 6000 BR VCSH BKN004 OVC015 QNH2976INS TEMPO 2906/2911 VRB25G35KT 1600 TSRA BR SCT005 BKN015CB OVC030 FM291142 22008KT 9999 VCTS BKN008 OVC025CB QNH2982INS TEMPO 2913/2915 VRB15G25KT 3200 SHRA BR VCTS SCT008 BKN025CB OVC060 TX22/2823Z TN18/2912Z FN00078 COR 1602